sensor_id;sensor_type;location;lat;lon;timestamp;P1;durP1;ratioP1;P2;durP2;ratioP2
37973;SDS011;23796;51.458;7.000;2022-08-20T00:01:07;15.80;;;14.10;;
37973;SDS011;23796;51.458;7.000;2022-08-20T00:03:35;17.20;;;15.60;;
37973;SDS011;23796;51.458;7.000;2022-08-20T00:06:07;15.73;;;14.05;;
37973;SDS011;23796;51.458;7.000;2022-08-20T00:08:41;15.10;;;13.50;;
37973;SDS011;23796;51.458;7.000;2022-08-20T00:11:11;16.23;;;14.18;;
37973;SDS011;23796;51.458;7.000;2022-08-20T00:13:43;14.20;;;12.77;;
37973;SDS011;23796;51.458;7.000;2022-08-20T00:16:14;14.20;;;12.27;;
37973;SDS011;23796;51.458;7.000;2022-08-20T00:18:47;16.10;;;13.18;;
37973;SDS011;23796;51.458;7.000;2022-08-20T00:21:14;13.68;;;12.40;;
37973;SDS011;23796;51.458;7.000;2022-08-20T00:23:44;14.07;;;12.63;;
37973;SDS011;23796;51.458;7.000;2022-08-20T00:26:12;13.65;;;12.27;;
37973;SDS011;23796;51.458;7.000;2022-08-20T00:28:41;17.75;;;13.35;;
37973;SDS011;23796;51.458;7.000;2022-08-20T00:31:10;14.07;;;12.57;;
37973;SDS011;23796;51.458;7.000;2022-08-20T00:33:41;13.48;;;12.07;;
37973;SDS011;23796;51.458;7.000;2022-08-20T00:36:10;14.02;;;12.63;;
37973;SDS011;23796;51.458;7.000;2022-08-20T00:38:40;13.13;;;11.82;;
37973;SDS011;23796;51.458;7.000;2022-08-20T00:41:08;13.48;;;11.95;;
37973;SDS011;23796;51.458;7.000;2022-08-20T00:43:38;14.93;;;13.38;;
37973;SDS011;23796;51.458;7.000;2022-08-20T00:46:07;15.77;;;13.25;;
37973;SDS011;23796;51.458;7.000;2022-08-20T00:48:35;14.80;;;13.35;;
37973;SDS011;23796;51.458;7.000;2022-08-20T00:51:04;14.63;;;13.20;;
37973;SDS011;23796;51.458;7.000;2022-08-20T00:53:45;14.32;;;12.82;;
37973;SDS011;23796;51.458;7.000;2022-08-20T00:56:13;16.67;;;13.02;;
37973;SDS011;23796;51.458;7.000;2022-08-20T00:58:39;14.95;;;13.27;;
37973;SDS011;23796;51.458;7.000;2022-08-20T01:01:09;14.13;;;12.68;;
37973;SDS011;23796;51.458;7.000;2022-08-20T01:03:35;16.33;;;13.75;;
37973;SDS011;23796;51.458;7.000;2022-08-20T01:06:02;14.07;;;12.68;;
37973;SDS011;23796;51.458;7.000;2022-08-20T01:08:27;13.85;;;12.48;;
37973;SDS011;23796;51.458;7.000;2022-08-20T01:10:55;14.40;;;12.82;;
37973;SDS011;23796;51.458;7.000;2022-08-20T01:13:41;13.57;;;12.23;;
37973;SDS011;23796;51.458;7.000;2022-08-20T01:16:11;13.40;;;12.07;;
37973;SDS011;23796;51.458;7.000;2022-08-20T01:18:43;13.68;;;12.27;;
37973;SDS011;23796;51.458;7.000;2022-08-20T01:21:11;15.63;;;12.95;;
37973;SDS011;23796;51.458;7.000;2022-08-20T01:26:37;14.07;;;12.75;;
37973;SDS011;23796;51.458;7.000;2022-08-20T01:29:09;14.60;;;13.20;;
37973;SDS011;23796;51.458;7.000;2022-08-20T01:31:42;14.38;;;12.88;;
37973;SDS011;23796;51.458;7.000;2022-08-20T01:34:13;15.02;;;13.45;;
37973;SDS011;23796;51.458;7.000;2022-08-20T01:36:46;15.82;;;14.23;;
37973;SDS011;23796;51.458;7.000;2022-08-20T01:39:17;16.38;;;14.55;;
37973;SDS011;23796;51.458;7.000;2022-08-20T01:44:40;14.02;;;12.55;;
37973;SDS011;23796;51.458;7.000;2022-08-20T01:47:18;15.20;;;13.65;;
37973;SDS011;23796;51.458;7.000;2022-08-20T01:49:58;15.48;;;13.88;;
37973;SDS011;23796;51.458;7.000;2022-08-20T01:54:57;15.73;;;14.00;;
37973;SDS011;23796;51.458;7.000;2022-08-20T01:57:25;16.00;;;14.50;;
37973;SDS011;23796;51.458;7.000;2022-08-20T01:59:54;16.65;;;14.48;;
37973;SDS011;23796;51.458;7.000;2022-08-20T02:02:24;15.93;;;14.23;;
37973;SDS011;23796;51.458;7.000;2022-08-20T02:04:50;15.18;;;13.57;;
37973;SDS011;23796;51.458;7.000;2022-08-20T02:07:17;15.30;;;13.70;;
37973;SDS011;23796;51.458;7.000;2022-08-20T02:09:45;15.90;;;13.82;;
37973;SDS011;23796;51.458;7.000;2022-08-20T02:12:11;14.68;;;13.18;;
37973;SDS011;23796;51.458;7.000;2022-08-20T02:14:42;14.32;;;12.93;;
37973;SDS011;23796;51.458;7.000;2022-08-20T02:17:10;15.35;;;12.95;;
37973;SDS011;23796;51.458;7.000;2022-08-20T02:19:41;13.77;;;12.38;;
37973;SDS011;23796;51.458;7.000;2022-08-20T02:24:57;11.45;;;9.88;;
37973;SDS011;23796;51.458;7.000;2022-08-20T02:27:25;10.90;;;9.77;;
37973;SDS011;23796;51.458;7.000;2022-08-20T02:29:51;10.77;;;9.35;;
37973;SDS011;23796;51.458;7.000;2022-08-20T02:32:17;10.07;;;8.98;;
37973;SDS011;23796;51.458;7.000;2022-08-20T02:34:46;9.90;;;8.20;;
37973;SDS011;23796;51.458;7.000;2022-08-20T02:37:13;9.48;;;7.63;;
37973;SDS011;23796;51.458;7.000;2022-08-20T02:39:40;8.85;;;6.68;;
37973;SDS011;23796;51.458;7.000;2022-08-20T02:42:06;7.82;;;6.60;;
37973;SDS011;23796;51.458;7.000;2022-08-20T02:44:33;8.48;;;6.75;;
37973;SDS011;23796;51.458;7.000;2022-08-20T02:46:59;8.30;;;7.50;;
37973;SDS011;23796;51.458;7.000;2022-08-20T02:49:27;9.43;;;7.40;;
37973;SDS011;23796;51.458;7.000;2022-08-20T02:51:55;10.55;;;7.38;;
37973;SDS011;23796;51.458;7.000;2022-08-20T02:54:21;9.13;;;7.90;;
37973;SDS011;23796;51.458;7.000;2022-08-20T02:56:49;9.45;;;8.32;;
37973;SDS011;23796;51.458;7.000;2022-08-20T02:59:16;10.98;;;7.97;;
37973;SDS011;23796;51.458;7.000;2022-08-20T03:01:42;9.00;;;7.97;;
37973;SDS011;23796;51.458;7.000;2022-08-20T03:04:08;10.68;;;7.90;;
37973;SDS011;23796;51.458;7.000;2022-08-20T03:06:38;11.25;;;8.48;;
37973;SDS011;23796;51.458;7.000;2022-08-20T03:09:06;9.07;;;8.18;;
37973;SDS011;23796;51.458;7.000;2022-08-20T03:11:34;11.32;;;9.48;;
37973;SDS011;23796;51.458;7.000;2022-08-20T03:14:00;10.88;;;8.85;;
37973;SDS011;23796;51.458;7.000;2022-08-20T03:16:28;10.75;;;9.20;;
37973;SDS011;23796;51.458;7.000;2022-08-20T03:18:54;10.68;;;9.45;;
37973;SDS011;23796;51.458;7.000;2022-08-20T03:21:19;11.73;;;9.93;;
37973;SDS011;23796;51.458;7.000;2022-08-20T03:23:45;10.77;;;9.20;;
37973;SDS011;23796;51.458;7.000;2022-08-20T03:26:14;10.93;;;9.82;;
37973;SDS011;23796;51.458;7.000;2022-08-20T03:28:44;11.65;;;10.45;;
37973;SDS011;23796;51.458;7.000;2022-08-20T03:31:10;11.98;;;10.27;;
37973;SDS011;23796;51.458;7.000;2022-08-20T03:33:36;15.02;;;10.65;;
37973;SDS011;23796;51.458;7.000;2022-08-20T03:36:04;11.38;;;10.25;;
37973;SDS011;23796;51.458;7.000;2022-08-20T03:38:30;12.75;;;10.52;;
37973;SDS011;23796;51.458;7.000;2022-08-20T03:40:58;12.23;;;10.93;;
37973;SDS011;23796;51.458;7.000;2022-08-20T03:43:24;12.35;;;10.27;;
37973;SDS011;23796;51.458;7.000;2022-08-20T03:45:52;13.13;;;11.13;;
37973;SDS011;23796;51.458;7.000;2022-08-20T03:48:21;13.82;;;10.95;;
37973;SDS011;23796;51.458;7.000;2022-08-20T03:50:47;12.23;;;9.80;;
37973;SDS011;23796;51.458;7.000;2022-08-20T03:53:17;12.95;;;11.57;;
37973;SDS011;23796;51.458;7.000;2022-08-20T03:55:45;15.63;;;12.73;;
37973;SDS011;23796;51.458;7.000;2022-08-20T03:58:12;13.38;;;10.57;;
37973;SDS011;23796;51.458;7.000;2022-08-20T04:00:40;12.07;;;10.75;;
37973;SDS011;23796;51.458;7.000;2022-08-20T04:03:08;13.35;;;11.73;;
37973;SDS011;23796;51.458;7.000;2022-08-20T04:05:35;15.27;;;12.00;;
37973;SDS011;23796;51.458;7.000;2022-08-20T04:08:11;14.75;;;13.25;;
37973;SDS011;23796;51.458;7.000;2022-08-20T04:10:40;13.38;;;11.63;;
37973;SDS011;23796;51.458;7.000;2022-08-20T04:13:09;13.88;;;12.38;;
37973;SDS011;23796;51.458;7.000;2022-08-20T04:15:35;12.30;;;10.98;;
37973;SDS011;23796;51.458;7.000;2022-08-20T04:18:07;13.93;;;11.60;;
37973;SDS011;23796;51.458;7.000;2022-08-20T04:20:34;14.77;;;11.82;;
37973;SDS011;23796;51.458;7.000;2022-08-20T04:23:02;13.98;;;11.32;;
37973;SDS011;23796;51.458;7.000;2022-08-20T04:25:29;14.00;;;10.82;;
37973;SDS011;23796;51.458;7.000;2022-08-20T04:27:56;12.52;;;10.98;;
37973;SDS011;23796;51.458;7.000;2022-08-20T04:30:23;13.43;;;11.07;;
37973;SDS011;23796;51.458;7.000;2022-08-20T04:32:49;11.93;;;10.60;;
37973;SDS011;23796;51.458;7.000;2022-08-20T04:35:18;13.60;;;11.23;;
37973;SDS011;23796;51.458;7.000;2022-08-20T04:37:46;15.10;;;11.55;;
37973;SDS011;23796;51.458;7.000;2022-08-20T04:40:16;12.07;;;10.55;;
37973;SDS011;23796;51.458;7.000;2022-08-20T04:43:03;12.35;;;11.05;;
37973;SDS011;23796;51.458;7.000;2022-08-20T04:45:32;13.65;;;11.48;;
37973;SDS011;23796;51.458;7.000;2022-08-20T04:48:02;12.57;;;11.05;;
37973;SDS011;23796;51.458;7.000;2022-08-20T04:50:29;11.10;;;9.93;;
37973;SDS011;23796;51.458;7.000;2022-08-20T04:53:00;12.20;;;9.70;;
37973;SDS011;23796;51.458;7.000;2022-08-20T04:55:29;11.23;;;9.32;;
37973;SDS011;23796;51.458;7.000;2022-08-20T04:58:02;12.15;;;10.75;;
37973;SDS011;23796;51.458;7.000;2022-08-20T05:00:29;12.32;;;9.93;;
37973;SDS011;23796;51.458;7.000;2022-08-20T05:02:59;10.43;;;9.27;;
37973;SDS011;23796;51.458;7.000;2022-08-20T05:05:24;10.43;;;9.32;;
37973;SDS011;23796;51.458;7.000;2022-08-20T05:07:51;13.10;;;10.88;;
37973;SDS011;23796;51.458;7.000;2022-08-20T05:10:17;11.32;;;9.98;;
37973;SDS011;23796;51.458;7.000;2022-08-20T05:12:46;13.23;;;11.80;;
37973;SDS011;23796;51.458;7.000;2022-08-20T05:15:12;14.75;;;11.93;;
37973;SDS011;23796;51.458;7.000;2022-08-20T05:17:38;12.25;;;10.70;;
37973;SDS011;23796;51.458;7.000;2022-08-20T05:20:11;14.45;;;11.05;;
37973;SDS011;23796;51.458;7.000;2022-08-20T05:22:41;11.52;;;10.23;;
37973;SDS011;23796;51.458;7.000;2022-08-20T05:25:11;10.05;;;8.82;;
37973;SDS011;23796;51.458;7.000;2022-08-20T05:27:37;11.32;;;9.38;;
37973;SDS011;23796;51.458;7.000;2022-08-20T05:30:07;11.30;;;9.75;;
37973;SDS011;23796;51.458;7.000;2022-08-20T05:32:36;11.45;;;10.25;;
37973;SDS011;23796;51.458;7.000;2022-08-20T05:35:03;11.05;;;9.77;;
37973;SDS011;23796;51.458;7.000;2022-08-20T05:37:33;11.95;;;10.70;;
37973;SDS011;23796;51.458;7.000;2022-08-20T05:40:06;13.23;;;11.88;;
37973;SDS011;23796;51.458;7.000;2022-08-20T05:45:00;12.52;;;11.20;;
37973;SDS011;23796;51.458;7.000;2022-08-20T05:47:26;11.85;;;10.65;;
37973;SDS011;23796;51.458;7.000;2022-08-20T05:49:52;13.38;;;12.00;;
37973;SDS011;23796;51.458;7.000;2022-08-20T05:52:20;12.85;;;10.73;;
37973;SDS011;23796;51.458;7.000;2022-08-20T05:54:45;12.13;;;11.02;;
37973;SDS011;23796;51.458;7.000;2022-08-20T05:57:16;8.73;;;7.85;;
37973;SDS011;23796;51.458;7.000;2022-08-20T05:59:47;7.63;;;6.90;;
37973;SDS011;23796;51.458;7.000;2022-08-20T06:02:13;7.70;;;6.90;;
37973;SDS011;23796;51.458;7.000;2022-08-20T06:04:59;7.47;;;6.68;;
37973;SDS011;23796;51.458;7.000;2022-08-20T06:07:25;9.32;;;7.60;;
37973;SDS011;23796;51.458;7.000;2022-08-20T06:09:51;10.32;;;9.30;;
37973;SDS011;23796;51.458;7.000;2022-08-20T06:12:16;11.02;;;10.02;;
37973;SDS011;23796;51.458;7.000;2022-08-20T06:14:44;12.13;;;10.90;;
37973;SDS011;23796;51.458;7.000;2022-08-20T06:17:16;11.55;;;10.38;;
37973;SDS011;23796;51.458;7.000;2022-08-20T06:19:44;11.93;;;10.83;;
37973;SDS011;23796;51.458;7.000;2022-08-20T06:22:11;13.32;;;11.85;;
37973;SDS011;23796;51.458;7.000;2022-08-20T06:24:37;13.43;;;12.20;;
37973;SDS011;23796;51.458;7.000;2022-08-20T06:27:03;13.00;;;11.73;;
37973;SDS011;23796;51.458;7.000;2022-08-20T06:29:30;13.63;;;12.32;;
37973;SDS011;23796;51.458;7.000;2022-08-20T06:31:58;12.38;;;11.07;;
37973;SDS011;23796;51.458;7.000;2022-08-20T06:34:27;13.30;;;11.90;;
37973;SDS011;23796;51.458;7.000;2022-08-20T06:36:53;14.77;;;13.40;;
37973;SDS011;23796;51.458;7.000;2022-08-20T06:39:19;15.13;;;13.57;;
37973;SDS011;23796;51.458;7.000;2022-08-20T06:41:45;15.82;;;14.23;;
37973;SDS011;23796;51.458;7.000;2022-08-20T06:44:11;15.65;;;14.15;;
37973;SDS011;23796;51.458;7.000;2022-08-20T06:46:39;17.48;;;15.68;;
37973;SDS011;23796;51.458;7.000;2022-08-20T06:49:07;16.50;;;14.85;;
37973;SDS011;23796;51.458;7.000;2022-08-20T06:51:33;17.83;;;16.13;;
37973;SDS011;23796;51.458;7.000;2022-08-20T06:53:59;17.52;;;15.70;;
37973;SDS011;23796;51.458;7.000;2022-08-20T06:56:25;16.50;;;14.90;;
37973;SDS011;23796;51.458;7.000;2022-08-20T06:58:53;15.05;;;13.55;;
37973;SDS011;23796;51.458;7.000;2022-08-20T07:01:18;17.98;;;16.02;;
37973;SDS011;23796;51.458;7.000;2022-08-20T07:03:47;17.67;;;15.98;;
37973;SDS011;23796;51.458;7.000;2022-08-20T07:06:14;16.98;;;14.50;;
37973;SDS011;23796;51.458;7.000;2022-08-20T07:08:41;17.00;;;15.40;;
37973;SDS011;23796;51.458;7.000;2022-08-20T07:11:10;16.38;;;14.80;;
37973;SDS011;23796;51.458;7.000;2022-08-20T07:13:36;17.45;;;15.85;;
37973;SDS011;23796;51.458;7.000;2022-08-20T07:16:03;17.38;;;15.57;;
37973;SDS011;23796;51.458;7.000;2022-08-20T07:18:29;16.88;;;15.18;;
37973;SDS011;23796;51.458;7.000;2022-08-20T07:20:58;17.13;;;15.48;;
37973;SDS011;23796;51.458;7.000;2022-08-20T07:23:24;16.48;;;14.88;;
37973;SDS011;23796;51.458;7.000;2022-08-20T07:25:50;15.82;;;14.23;;
37973;SDS011;23796;51.458;7.000;2022-08-20T07:28:21;15.30;;;13.90;;
37973;SDS011;23796;51.458;7.000;2022-08-20T07:30:49;16.13;;;14.70;;
37973;SDS011;23796;51.458;7.000;2022-08-20T07:33:34;16.73;;;15.23;;
37973;SDS011;23796;51.458;7.000;2022-08-20T07:36:02;15.13;;;13.60;;
37973;SDS011;23796;51.458;7.000;2022-08-20T07:38:35;14.15;;;12.85;;
37973;SDS011;23796;51.458;7.000;2022-08-20T07:43:33;14.70;;;13.30;;
37973;SDS011;23796;51.458;7.000;2022-08-20T07:45:59;15.93;;;14.52;;
37973;SDS011;23796;51.458;7.000;2022-08-20T07:48:34;15.38;;;14.07;;
37973;SDS011;23796;51.458;7.000;2022-08-20T07:51:04;17.27;;;15.77;;
37973;SDS011;23796;51.458;7.000;2022-08-20T07:53:31;12.32;;;11.23;;
37973;SDS011;23796;51.458;7.000;2022-08-20T07:56:04;13.52;;;12.32;;
37973;SDS011;23796;51.458;7.000;2022-08-20T07:58:35;20.27;;;18.40;;
37973;SDS011;23796;51.458;7.000;2022-08-20T08:01:05;17.60;;;16.08;;
37973;SDS011;23796;51.458;7.000;2022-08-20T08:03:31;16.80;;;15.40;;
37973;SDS011;23796;51.458;7.000;2022-08-20T08:05:58;22.10;;;20.27;;
37973;SDS011;23796;51.458;7.000;2022-08-20T08:08:24;19.08;;;17.38;;
37973;SDS011;23796;51.458;7.000;2022-08-20T08:10:56;20.23;;;18.42;;
37973;SDS011;23796;51.458;7.000;2022-08-20T08:13:25;17.05;;;15.38;;
37973;SDS011;23796;51.458;7.000;2022-08-20T08:15:51;18.55;;;16.85;;
37973;SDS011;23796;51.458;7.000;2022-08-20T08:18:27;17.75;;;16.15;;
37973;SDS011;23796;51.458;7.000;2022-08-20T08:20:58;16.88;;;15.30;;
37973;SDS011;23796;51.458;7.000;2022-08-20T08:23:24;16.95;;;15.45;;
37973;SDS011;23796;51.458;7.000;2022-08-20T08:25:51;16.88;;;15.18;;
37973;SDS011;23796;51.458;7.000;2022-08-20T08:28:19;14.68;;;12.68;;
37973;SDS011;23796;51.458;7.000;2022-08-20T08:30:46;15.15;;;13.82;;
37973;SDS011;23796;51.458;7.000;2022-08-20T08:33:25;12.38;;;11.07;;
37973;SDS011;23796;51.458;7.000;2022-08-20T08:35:52;11.13;;;10.07;;
37973;SDS011;23796;51.458;7.000;2022-08-20T08:38:22;12.43;;;9.38;;
37973;SDS011;23796;51.458;7.000;2022-08-20T08:40:53;11.73;;;10.63;;
37973;SDS011;23796;51.458;7.000;2022-08-20T08:43:24;13.60;;;11.63;;
37973;SDS011;23796;51.458;7.000;2022-08-20T08:45:56;14.27;;;12.77;;
37973;SDS011;23796;51.458;7.000;2022-08-20T08:48:34;16.10;;;14.60;;
37973;SDS011;23796;51.458;7.000;2022-08-20T08:51:07;15.23;;;13.90;;
37973;SDS011;23796;51.458;7.000;2022-08-20T08:53:41;20.08;;;18.40;;
37973;SDS011;23796;51.458;7.000;2022-08-20T08:56:17;23.23;;;20.95;;
37973;SDS011;23796;51.458;7.000;2022-08-20T08:58:43;20.77;;;18.75;;
37973;SDS011;23796;51.458;7.000;2022-08-20T09:01:10;23.08;;;20.75;;
37973;SDS011;23796;51.458;7.000;2022-08-20T09:03:43;23.20;;;21.00;;
37973;SDS011;23796;51.458;7.000;2022-08-20T09:06:17;22.08;;;20.00;;
37973;SDS011;23796;51.458;7.000;2022-08-20T09:11:14;20.65;;;18.58;;
37973;SDS011;23796;51.458;7.000;2022-08-20T09:13:42;21.60;;;19.52;;
37973;SDS011;23796;51.458;7.000;2022-08-20T09:16:09;19.02;;;17.33;;
37973;SDS011;23796;51.458;7.000;2022-08-20T09:18:38;21.02;;;19.08;;
37973;SDS011;23796;51.458;7.000;2022-08-20T09:21:04;20.02;;;18.10;;
37973;SDS011;23796;51.458;7.000;2022-08-20T09:23:30;18.20;;;16.40;;
37973;SDS011;23796;51.458;7.000;2022-08-20T09:25:58;20.90;;;18.58;;
37973;SDS011;23796;51.458;7.000;2022-08-20T09:28:24;18.10;;;16.30;;
37973;SDS011;23796;51.458;7.000;2022-08-20T09:30:53;21.33;;;19.02;;
37973;SDS011;23796;51.458;7.000;2022-08-20T09:33:26;19.73;;;17.55;;
37973;SDS011;23796;51.458;7.000;2022-08-20T09:35:52;19.55;;;17.65;;
37973;SDS011;23796;51.458;7.000;2022-08-20T09:38:18;19.00;;;17.08;;
37973;SDS011;23796;51.458;7.000;2022-08-20T09:40:44;17.75;;;15.88;;
37973;SDS011;23796;51.458;7.000;2022-08-20T09:43:10;19.02;;;17.08;;
37973;SDS011;23796;51.458;7.000;2022-08-20T09:45:37;18.23;;;16.33;;
37973;SDS011;23796;51.458;7.000;2022-08-20T09:48:03;17.80;;;15.90;;
37973;SDS011;23796;51.458;7.000;2022-08-20T09:50:31;17.17;;;15.48;;
37973;SDS011;23796;51.458;7.000;2022-08-20T09:52:59;18.20;;;15.35;;
37973;SDS011;23796;51.458;7.000;2022-08-20T09:57:54;17.60;;;15.73;;
37973;SDS011;23796;51.458;7.000;2022-08-20T10:00:20;15.98;;;14.38;;
37973;SDS011;23796;51.458;7.000;2022-08-20T10:02:48;16.23;;;14.68;;
37973;SDS011;23796;51.458;7.000;2022-08-20T10:05:14;16.15;;;14.32;;
37973;SDS011;23796;51.458;7.000;2022-08-20T10:07:44;17.38;;;14.65;;
37973;SDS011;23796;51.458;7.000;2022-08-20T10:10:14;16.45;;;14.93;;
37973;SDS011;23796;51.458;7.000;2022-08-20T10:12:40;17.48;;;15.77;;
37973;SDS011;23796;51.458;7.000;2022-08-20T10:15:07;16.45;;;14.73;;
37973;SDS011;23796;51.458;7.000;2022-08-20T10:17:37;16.85;;;14.13;;
37973;SDS011;23796;51.458;7.000;2022-08-20T10:20:04;15.30;;;13.80;;
37973;SDS011;23796;51.458;7.000;2022-08-20T10:22:34;17.48;;;15.60;;
37973;SDS011;23796;51.458;7.000;2022-08-20T10:25:00;17.02;;;15.13;;
37973;SDS011;23796;51.458;7.000;2022-08-20T10:27:26;15.45;;;13.68;;
37973;SDS011;23796;51.458;7.000;2022-08-20T10:29:52;14.10;;;12.63;;
37973;SDS011;23796;51.458;7.000;2022-08-20T10:32:19;16.70;;;13.23;;
37973;SDS011;23796;51.458;7.000;2022-08-20T10:34:48;14.52;;;12.95;;
37973;SDS011;23796;51.458;7.000;2022-08-20T10:37:17;16.15;;;13.57;;
37973;SDS011;23796;51.458;7.000;2022-08-20T10:39:47;14.55;;;12.68;;
37973;SDS011;23796;51.458;7.000;2022-08-20T10:42:15;16.65;;;12.07;;
37973;SDS011;23796;51.458;7.000;2022-08-20T10:44:44;13.90;;;12.32;;
37973;SDS011;23796;51.458;7.000;2022-08-20T10:49:50;20.08;;;12.27;;
37973;SDS011;23796;51.458;7.000;2022-08-20T10:52:19;12.70;;;10.70;;
37973;SDS011;23796;51.458;7.000;2022-08-20T10:54:46;13.35;;;11.02;;
37973;SDS011;23796;51.458;7.000;2022-08-20T10:57:16;13.73;;;11.38;;
37973;SDS011;23796;51.458;7.000;2022-08-20T10:59:50;12.07;;;10.68;;
37973;SDS011;23796;51.458;7.000;2022-08-20T11:02:18;13.13;;;10.55;;
37973;SDS011;23796;51.458;7.000;2022-08-20T11:04:44;15.10;;;11.27;;
37973;SDS011;23796;51.458;7.000;2022-08-20T11:09:43;13.25;;;10.95;;
37973;SDS011;23796;51.458;7.000;2022-08-20T11:12:10;15.32;;;11.48;;
37973;SDS011;23796;51.458;7.000;2022-08-20T11:14:36;14.18;;;11.50;;
37973;SDS011;23796;51.458;7.000;2022-08-20T11:17:02;12.43;;;10.55;;
37973;SDS011;23796;51.458;7.000;2022-08-20T11:19:29;18.30;;;14.82;;
37973;SDS011;23796;51.458;7.000;2022-08-20T11:21:55;14.77;;;11.70;;
37973;SDS011;23796;51.458;7.000;2022-08-20T11:24:20;16.17;;;11.02;;
37973;SDS011;23796;51.458;7.000;2022-08-20T11:26:47;13.05;;;10.55;;
37973;SDS011;23796;51.458;7.000;2022-08-20T11:29:16;17.10;;;12.25;;
37973;SDS011;23796;51.458;7.000;2022-08-20T11:31:42;13.02;;;9.30;;
37973;SDS011;23796;51.458;7.000;2022-08-20T11:34:08;15.27;;;11.95;;
37973;SDS011;23796;51.458;7.000;2022-08-20T11:36:35;14.95;;;12.00;;
37973;SDS011;23796;51.458;7.000;2022-08-20T11:39:02;11.68;;;9.85;;
37973;SDS011;23796;51.458;7.000;2022-08-20T11:41:30;12.15;;;10.80;;
37973;SDS011;23796;51.458;7.000;2022-08-20T11:43:58;12.30;;;9.25;;
37973;SDS011;23796;51.458;7.000;2022-08-20T11:46:24;12.05;;;10.38;;
37973;SDS011;23796;51.458;7.000;2022-08-20T11:48:49;13.20;;;10.93;;
37973;SDS011;23796;51.458;7.000;2022-08-20T11:51:15;12.23;;;10.27;;
37973;SDS011;23796;51.458;7.000;2022-08-20T11:53:41;11.15;;;10.02;;
37973;SDS011;23796;51.458;7.000;2022-08-20T11:56:06;13.13;;;11.00;;
37973;SDS011;23796;51.458;7.000;2022-08-20T11:58:32;13.75;;;10.35;;
37973;SDS011;23796;51.458;7.000;2022-08-20T12:00:58;13.27;;;10.45;;
37973;SDS011;23796;51.458;7.000;2022-08-20T12:03:26;14.25;;;10.07;;
37973;SDS011;23796;51.458;7.000;2022-08-20T12:05:52;11.93;;;9.70;;
37973;SDS011;23796;51.458;7.000;2022-08-20T12:08:17;13.38;;;10.82;;
37973;SDS011;23796;51.458;7.000;2022-08-20T12:10:43;13.80;;;9.60;;
37973;SDS011;23796;51.458;7.000;2022-08-20T12:13:09;15.52;;;9.35;;
37973;SDS011;23796;51.458;7.000;2022-08-20T12:15:39;13.30;;;10.15;;
37973;SDS011;23796;51.458;7.000;2022-08-20T12:18:05;11.60;;;9.02;;
37973;SDS011;23796;51.458;7.000;2022-08-20T12:20:32;12.02;;;9.52;;
37973;SDS011;23796;51.458;7.000;2022-08-20T12:22:58;10.70;;;9.57;;
37973;SDS011;23796;51.458;7.000;2022-08-20T12:25:26;14.73;;;10.50;;
37973;SDS011;23796;51.458;7.000;2022-08-20T12:27:56;11.13;;;9.40;;
37973;SDS011;23796;51.458;7.000;2022-08-20T12:30:23;11.50;;;7.78;;
37973;SDS011;23796;51.458;7.000;2022-08-20T12:32:51;14.55;;;9.70;;
37973;SDS011;23796;51.458;7.000;2022-08-20T12:35:17;11.73;;;7.88;;
37973;SDS011;23796;51.458;7.000;2022-08-20T12:37:44;10.13;;;8.45;;
37973;SDS011;23796;51.458;7.000;2022-08-20T12:40:14;11.13;;;8.32;;
37973;SDS011;23796;51.458;7.000;2022-08-20T12:42:42;10.23;;;8.77;;
37973;SDS011;23796;51.458;7.000;2022-08-20T12:45:10;12.25;;;9.77;;
37973;SDS011;23796;51.458;7.000;2022-08-20T12:47:37;12.63;;;8.57;;
37973;SDS011;23796;51.458;7.000;2022-08-20T12:50:11;11.60;;;9.57;;
37973;SDS011;23796;51.458;7.000;2022-08-20T12:52:39;12.40;;;10.18;;
37973;SDS011;23796;51.458;7.000;2022-08-20T12:55:08;12.07;;;9.70;;
37973;SDS011;23796;51.458;7.000;2022-08-20T12:57:37;9.80;;;8.13;;
37973;SDS011;23796;51.458;7.000;2022-08-20T13:00:26;10.70;;;8.10;;
37973;SDS011;23796;51.458;7.000;2022-08-20T13:03:05;12.27;;;9.80;;
37973;SDS011;23796;51.458;7.000;2022-08-20T13:05:32;9.30;;;8.30;;
37973;SDS011;23796;51.458;7.000;2022-08-20T13:08:01;10.35;;;9.30;;
37973;SDS011;23796;51.458;7.000;2022-08-20T13:10:32;10.52;;;8.52;;
37973;SDS011;23796;51.458;7.000;2022-08-20T13:13:06;9.30;;;6.55;;
37973;SDS011;23796;51.458;7.000;2022-08-20T13:15:31;9.65;;;6.35;;
37973;SDS011;23796;51.458;7.000;2022-08-20T13:18:00;9.20;;;5.10;;
37973;SDS011;23796;51.458;7.000;2022-08-20T13:20:27;11.32;;;5.30;;
37973;SDS011;23796;51.458;7.000;2022-08-20T13:22:53;8.32;;;5.32;;
37973;SDS011;23796;51.458;7.000;2022-08-20T13:25:23;11.48;;;5.55;;
37973;SDS011;23796;51.458;7.000;2022-08-20T13:27:53;7.25;;;4.00;;
37973;SDS011;23796;51.458;7.000;2022-08-20T13:30:23;6.40;;;3.60;;
37973;SDS011;23796;51.458;7.000;2022-08-20T13:32:49;6.30;;;2.75;;
37973;SDS011;23796;51.458;7.000;2022-08-20T13:35:17;7.45;;;2.80;;
37973;SDS011;23796;51.458;7.000;2022-08-20T13:37:43;6.72;;;3.17;;
37973;SDS011;23796;51.458;7.000;2022-08-20T13:40:12;10.07;;;3.30;;
37973;SDS011;23796;51.458;7.000;2022-08-20T13:42:40;6.40;;;3.00;;
37973;SDS011;23796;51.458;7.000;2022-08-20T13:45:09;6.82;;;2.90;;
37973;SDS011;23796;51.458;7.000;2022-08-20T13:47:35;8.73;;;3.10;;
37973;SDS011;23796;51.458;7.000;2022-08-20T13:50:07;10.30;;;3.47;;
37973;SDS011;23796;51.458;7.000;2022-08-20T13:52:39;5.88;;;3.00;;
37973;SDS011;23796;51.458;7.000;2022-08-20T13:55:06;7.93;;;2.65;;
37973;SDS011;23796;51.458;7.000;2022-08-20T13:57:35;7.13;;;2.72;;
37973;SDS011;23796;51.458;7.000;2022-08-20T14:00:04;6.65;;;2.85;;
37973;SDS011;23796;51.458;7.000;2022-08-20T14:02:39;7.30;;;3.70;;
37973;SDS011;23796;51.458;7.000;2022-08-20T14:05:06;8.73;;;3.63;;
37973;SDS011;23796;51.458;7.000;2022-08-20T14:07:32;7.95;;;3.42;;
37973;SDS011;23796;51.458;7.000;2022-08-20T14:10:04;5.78;;;3.38;;
37973;SDS011;23796;51.458;7.000;2022-08-20T14:12:37;7.90;;;3.65;;
37973;SDS011;23796;51.458;7.000;2022-08-20T14:15:03;6.97;;;3.08;;
37973;SDS011;23796;51.458;7.000;2022-08-20T14:17:31;7.43;;;3.80;;
37973;SDS011;23796;51.458;7.000;2022-08-20T14:20:00;7.68;;;3.78;;
37973;SDS011;23796;51.458;7.000;2022-08-20T14:22:28;7.75;;;3.60;;
37973;SDS011;23796;51.458;7.000;2022-08-20T14:24:56;6.80;;;3.50;;
37973;SDS011;23796;51.458;7.000;2022-08-20T14:27:26;7.63;;;3.97;;
37973;SDS011;23796;51.458;7.000;2022-08-20T14:29:54;8.75;;;4.15;;
37973;SDS011;23796;51.458;7.000;2022-08-20T14:32:20;9.35;;;3.60;;
37973;SDS011;23796;51.458;7.000;2022-08-20T14:34:45;6.00;;;3.03;;
37973;SDS011;23796;51.458;7.000;2022-08-20T14:39:42;7.88;;;3.55;;
37973;SDS011;23796;51.458;7.000;2022-08-20T14:42:12;7.32;;;2.90;;
37973;SDS011;23796;51.458;7.000;2022-08-20T14:44:44;6.00;;;3.08;;
37973;SDS011;23796;51.458;7.000;2022-08-20T14:49:40;7.90;;;2.40;;
37973;SDS011;23796;51.458;7.000;2022-08-20T14:52:07;8.02;;;2.83;;
37973;SDS011;23796;51.458;7.000;2022-08-20T14:54:33;5.78;;;2.17;;
37973;SDS011;23796;51.458;7.000;2022-08-20T14:57:01;6.22;;;2.40;;
37973;SDS011;23796;51.458;7.000;2022-08-20T14:59:30;6.15;;;2.70;;
37973;SDS011;23796;51.458;7.000;2022-08-20T15:01:55;7.13;;;3.25;;
37973;SDS011;23796;51.458;7.000;2022-08-20T15:04:24;6.93;;;2.55;;
37973;SDS011;23796;51.458;7.000;2022-08-20T15:06:51;6.70;;;2.80;;